sensor_id;sensor_type;location;lat;lon;timestamp;P1;durP1;ratioP1;P2;durP2;ratioP2
28427;SDS011;15662;49.128;8.520;2023-05-07T00:00:02;1.80;;;1.70;;
28427;SDS011;15662;49.128;8.520;2023-05-07T00:02:35;1.50;;;1.40;;
28427;SDS011;15662;49.128;8.520;2023-05-07T00:05:05;3.20;;;1.58;;
28427;SDS011;15662;49.128;8.520;2023-05-07T00:07:33;1.80;;;1.60;;
28427;SDS011;15662;49.128;8.520;2023-05-07T00:10:01;1.50;;;1.40;;
28427;SDS011;15662;49.128;8.520;2023-05-07T00:12:31;1.20;;;1.20;;
28427;SDS011;15662;49.128;8.520;2023-05-07T00:15:02;3.45;;;1.60;;
28427;SDS011;15662;49.128;8.520;2023-05-07T00:17:32;4.10;;;1.70;;
28427;SDS011;15662;49.128;8.520;2023-05-07T00:20:00;2.42;;;1.73;;
28427;SDS011;15662;49.128;8.520;2023-05-07T00:22:28;1.70;;;1.60;;
28427;SDS011;15662;49.128;8.520;2023-05-07T00:24:57;2.20;;;2.05;;
28427;SDS011;15662;49.128;8.520;2023-05-07T00:27:25;2.67;;;1.70;;
28427;SDS011;15662;49.128;8.520;2023-05-07T00:29:53;2.55;;;1.80;;
28427;SDS011;15662;49.128;8.520;2023-05-07T00:32:21;2.00;;;1.90;;
28427;SDS011;15662;49.128;8.520;2023-05-07T00:34:49;2.28;;;2.08;;
28427;SDS011;15662;49.128;8.520;2023-05-07T00:37:18;3.15;;;2.22;;
28427;SDS011;15662;49.128;8.520;2023-05-07T00:39:45;2.38;;;1.75;;
28427;SDS011;15662;49.128;8.520;2023-05-07T00:42:13;2.25;;;1.70;;
28427;SDS011;15662;49.128;8.520;2023-05-07T00:44:42;2.17;;;1.60;;
28427;SDS011;15662;49.128;8.520;2023-05-07T00:47:10;1.88;;;1.77;;
28427;SDS011;15662;49.128;8.520;2023-05-07T00:49:38;1.73;;;1.63;;
28427;SDS011;15662;49.128;8.520;2023-05-07T00:52:10;5.80;;;2.03;;
28427;SDS011;15662;49.128;8.520;2023-05-07T00:54:42;2.55;;;2.15;;
28427;SDS011;15662;49.128;8.520;2023-05-07T00:57:11;4.03;;;2.17;;
28427;SDS011;15662;49.128;8.520;2023-05-07T00:59:39;3.42;;;2.10;;
28427;SDS011;15662;49.128;8.520;2023-05-07T01:02:07;1.80;;;1.70;;
28427;SDS011;15662;49.128;8.520;2023-05-07T01:04:35;2.45;;;1.73;;
28427;SDS011;15662;49.128;8.520;2023-05-07T01:07:04;3.38;;;1.60;;
28427;SDS011;15662;49.128;8.520;2023-05-07T01:09:32;2.10;;;1.77;;
28427;SDS011;15662;49.128;8.520;2023-05-07T01:12:02;1.85;;;1.63;;
28427;SDS011;15662;49.128;8.520;2023-05-07T01:14:31;1.92;;;1.70;;
28427;SDS011;15662;49.128;8.520;2023-05-07T01:17:00;1.88;;;1.77;;
28427;SDS011;15662;49.128;8.520;2023-05-07T01:19:28;1.55;;;1.50;;
28427;SDS011;15662;49.128;8.520;2023-05-07T01:22:03;2.72;;;1.80;;
28427;SDS011;15662;49.128;8.520;2023-05-07T01:24:44;3.53;;;2.28;;
28427;SDS011;15662;49.128;8.520;2023-05-07T01:27:14;4.38;;;2.30;;
28427;SDS011;15662;49.128;8.520;2023-05-07T01:29:42;2.55;;;2.00;;
28427;SDS011;15662;49.128;8.520;2023-05-07T01:32:10;6.82;;;2.40;;
28427;SDS011;15662;49.128;8.520;2023-05-07T01:34:40;1.95;;;1.85;;
28427;SDS011;15662;49.128;8.520;2023-05-07T01:37:10;5.97;;;2.20;;
28427;SDS011;15662;49.128;8.520;2023-05-07T01:39:39;2.95;;;2.13;;
28427;SDS011;15662;49.128;8.520;2023-05-07T01:42:08;5.47;;;2.65;;
28427;SDS011;15662;49.128;8.520;2023-05-07T01:44:36;2.30;;;2.10;;
28427;SDS011;15662;49.128;8.520;2023-05-07T01:47:03;2.83;;;2.10;;
28427;SDS011;15662;49.128;8.520;2023-05-07T01:49:32;2.30;;;2.10;;
28427;SDS011;15662;49.128;8.520;2023-05-07T01:52:01;4.25;;;2.30;;
28427;SDS011;15662;49.128;8.520;2023-05-07T01:54:29;2.70;;;1.90;;
28427;SDS011;15662;49.128;8.520;2023-05-07T01:56:58;2.42;;;2.22;;
28427;SDS011;15662;49.128;8.520;2023-05-07T01:59:27;2.45;;;2.25;;
28427;SDS011;15662;49.128;8.520;2023-05-07T02:01:54;2.75;;;2.25;;
28427;SDS011;15662;49.128;8.520;2023-05-07T02:04:22;2.40;;;2.20;;
28427;SDS011;15662;49.128;8.520;2023-05-07T02:06:52;2.35;;;2.17;;
28427;SDS011;15662;49.128;8.520;2023-05-07T02:09:20;2.35;;;2.10;;
28427;SDS011;15662;49.128;8.520;2023-05-07T02:11:51;3.63;;;2.40;;
28427;SDS011;15662;49.128;8.520;2023-05-07T02:14:20;2.50;;;2.30;;
28427;SDS011;15662;49.128;8.520;2023-05-07T02:16:48;2.55;;;2.35;;
28427;SDS011;15662;49.128;8.520;2023-05-07T02:19:16;2.88;;;2.60;;
28427;SDS011;15662;49.128;8.520;2023-05-07T02:21:45;2.72;;;2.38;;
28427;SDS011;15662;49.128;8.520;2023-05-07T02:24:13;2.50;;;2.30;;
28427;SDS011;15662;49.128;8.520;2023-05-07T02:26:41;2.20;;;2.00;;
28427;SDS011;15662;49.128;8.520;2023-05-07T02:29:08;2.88;;;2.58;;
28427;SDS011;15662;49.128;8.520;2023-05-07T02:31:38;2.78;;;2.58;;
28427;SDS011;15662;49.128;8.520;2023-05-07T02:34:05;8.95;;;4.28;;
28427;SDS011;15662;49.128;8.520;2023-05-07T02:36:33;16.42;;;6.85;;
28427;SDS011;15662;49.128;8.520;2023-05-07T02:39:09;10.65;;;4.75;;
28427;SDS011;15662;49.128;8.520;2023-05-07T02:41:37;8.35;;;4.60;;
28427;SDS011;15662;49.128;8.520;2023-05-07T02:44:05;7.63;;;4.45;;
28427;SDS011;15662;49.128;8.520;2023-05-07T02:46:33;9.75;;;5.45;;
28427;SDS011;15662;49.128;8.520;2023-05-07T02:49:06;9.43;;;4.90;;
28427;SDS011;15662;49.128;8.520;2023-05-07T02:51:34;5.30;;;3.78;;
28427;SDS011;15662;49.128;8.520;2023-05-07T02:54:05;3.72;;;2.60;;
28427;SDS011;15662;49.128;8.520;2023-05-07T02:56:32;2.75;;;2.53;;
28427;SDS011;15662;49.128;8.520;2023-05-07T02:59:00;3.17;;;2.40;;
28427;SDS011;15662;49.128;8.520;2023-05-07T03:01:33;4.25;;;2.53;;
28427;SDS011;15662;49.128;8.520;2023-05-07T03:04:03;2.28;;;2.03;;
28427;SDS011;15662;49.128;8.520;2023-05-07T03:06:31;2.33;;;2.13;;
28427;SDS011;15662;49.128;8.520;2023-05-07T03:08:59;2.55;;;2.28;;
28427;SDS011;15662;49.128;8.520;2023-05-07T03:11:27;4.28;;;2.63;;
28427;SDS011;15662;49.128;8.520;2023-05-07T03:13:55;5.28;;;3.00;;
28427;SDS011;15662;49.128;8.520;2023-05-07T03:16:23;8.10;;;3.17;;
28427;SDS011;15662;49.128;8.520;2023-05-07T03:18:51;4.20;;;2.45;;
28427;SDS011;15662;49.128;8.520;2023-05-07T03:21:18;3.67;;;2.72;;
28427;SDS011;15662;49.128;8.520;2023-05-07T03:23:46;5.20;;;3.17;;
28427;SDS011;15662;49.128;8.520;2023-05-07T03:26:14;5.68;;;3.65;;
28427;SDS011;15662;49.128;8.520;2023-05-07T03:28:44;8.68;;;4.85;;
28427;SDS011;15662;49.128;8.520;2023-05-07T03:31:13;8.07;;;4.45;;
28427;SDS011;15662;49.128;8.520;2023-05-07T03:33:56;5.65;;;3.75;;
28427;SDS011;15662;49.128;8.520;2023-05-07T03:36:25;3.65;;;3.25;;
28427;SDS011;15662;49.128;8.520;2023-05-07T03:38:56;4.57;;;3.08;;
28427;SDS011;15662;49.128;8.520;2023-05-07T03:41:32;6.95;;;3.38;;
28427;SDS011;15662;49.128;8.520;2023-05-07T03:44:00;5.15;;;3.53;;
28427;SDS011;15662;49.128;8.520;2023-05-07T03:46:28;4.05;;;2.90;;
28427;SDS011;15662;49.128;8.520;2023-05-07T03:48:56;3.97;;;3.20;;
28427;SDS011;15662;49.128;8.520;2023-05-07T03:51:24;2.40;;;2.15;;
28427;SDS011;15662;49.128;8.520;2023-05-07T03:53:53;5.15;;;3.22;;
28427;SDS011;15662;49.128;8.520;2023-05-07T03:58:57;8.35;;;2.47;;
28427;SDS011;15662;49.128;8.520;2023-05-07T04:01:25;2.60;;;2.25;;
28427;SDS011;15662;49.128;8.520;2023-05-07T04:03:54;2.45;;;2.35;;
28427;SDS011;15662;49.128;8.520;2023-05-07T04:06:24;2.20;;;2.00;;
28427;SDS011;15662;49.128;8.520;2023-05-07T04:08:52;2.80;;;1.85;;
28427;SDS011;15662;49.128;8.520;2023-05-07T04:11:20;2.40;;;2.20;;
28427;SDS011;15662;49.128;8.520;2023-05-07T04:13:48;2.30;;;2.10;;
28427;SDS011;15662;49.128;8.520;2023-05-07T04:18:48;2.15;;;1.95;;
28427;SDS011;15662;49.128;8.520;2023-05-07T04:21:17;2.17;;;2.03;;
28427;SDS011;15662;49.128;8.520;2023-05-07T04:26:15;4.85;;;2.78;;
28427;SDS011;15662;49.128;8.520;2023-05-07T04:28:44;6.35;;;3.50;;
28427;SDS011;15662;49.128;8.520;2023-05-07T04:31:14;5.28;;;2.45;;
28427;SDS011;15662;49.128;8.520;2023-05-07T04:33:42;3.08;;;2.10;;
28427;SDS011;15662;49.128;8.520;2023-05-07T04:36:13;2.10;;;2.00;;
28427;SDS011;15662;49.128;8.520;2023-05-07T04:38:49;2.30;;;2.10;;
28427;SDS011;15662;49.128;8.520;2023-05-07T04:41:19;2.53;;;1.80;;
28427;SDS011;15662;49.128;8.520;2023-05-07T04:43:48;3.33;;;2.78;;
28427;SDS011;15662;49.128;8.520;2023-05-07T04:46:17;5.00;;;3.50;;
28427;SDS011;15662;49.128;8.520;2023-05-07T04:48:45;5.90;;;3.85;;
28427;SDS011;15662;49.128;8.520;2023-05-07T04:51:13;3.03;;;2.63;;
28427;SDS011;15662;49.128;8.520;2023-05-07T04:53:41;2.63;;;2.40;;
28427;SDS011;15662;49.128;8.520;2023-05-07T04:56:11;2.33;;;2.00;;
28427;SDS011;15662;49.128;8.520;2023-05-07T04:58:41;2.00;;;1.90;;
28427;SDS011;15662;49.128;8.520;2023-05-07T05:01:10;2.05;;;1.67;;
28427;SDS011;15662;49.128;8.520;2023-05-07T05:03:38;2.35;;;2.00;;
28427;SDS011;15662;49.128;8.520;2023-05-07T05:06:07;2.42;;;2.22;;
28427;SDS011;15662;49.128;8.520;2023-05-07T05:08:35;3.47;;;2.50;;
28427;SDS011;15662;49.128;8.520;2023-05-07T05:11:04;5.22;;;2.95;;
28427;SDS011;15662;49.128;8.520;2023-05-07T05:13:34;3.95;;;2.80;;
28427;SDS011;15662;49.128;8.520;2023-05-07T05:16:08;4.93;;;2.97;;
28427;SDS011;15662;49.128;8.520;2023-05-07T05:18:37;5.50;;;3.00;;
28427;SDS011;15662;49.128;8.520;2023-05-07T05:21:05;5.45;;;3.42;;
28427;SDS011;15662;49.128;8.520;2023-05-07T05:23:33;3.83;;;3.15;;
28427;SDS011;15662;49.128;8.520;2023-05-07T05:26:01;5.70;;;3.42;;
28427;SDS011;15662;49.128;8.520;2023-05-07T05:28:31;1.65;;;1.55;;
28427;SDS011;15662;49.128;8.520;2023-05-07T05:30:59;3.45;;;2.60;;
28427;SDS011;15662;49.128;8.520;2023-05-07T05:33:31;2.53;;;2.33;;
28427;SDS011;15662;49.128;8.520;2023-05-07T05:38:32;2.28;;;2.13;;
28427;SDS011;15662;49.128;8.520;2023-05-07T05:41:00;2.00;;;1.90;;
28427;SDS011;15662;49.128;8.520;2023-05-07T05:43:29;2.10;;;2.00;;
28427;SDS011;15662;49.128;8.520;2023-05-07T05:45:58;2.40;;;2.20;;
28427;SDS011;15662;49.128;8.520;2023-05-07T05:48:26;2.83;;;1.90;;
28427;SDS011;15662;49.128;8.520;2023-05-07T05:50:57;2.93;;;2.20;;
28427;SDS011;15662;49.128;8.520;2023-05-07T05:53:25;2.47;;;1.83;;
28427;SDS011;15662;49.128;8.520;2023-05-07T05:55:53;2.08;;;1.88;;
28427;SDS011;15662;49.128;8.520;2023-05-07T05:58:21;1.92;;;1.83;;
28427;SDS011;15662;49.128;8.520;2023-05-07T06:00:55;2.35;;;1.85;;
28427;SDS011;15662;49.128;8.520;2023-05-07T06:03:25;2.20;;;2.00;;
28427;SDS011;15662;49.128;8.520;2023-05-07T06:05:54;2.10;;;2.00;;
28427;SDS011;15662;49.128;8.520;2023-05-07T06:08:22;1.90;;;1.80;;
28427;SDS011;15662;49.128;8.520;2023-05-07T06:10:51;2.80;;;2.42;;
28427;SDS011;15662;49.128;8.520;2023-05-07T06:13:19;2.92;;;2.20;;
28427;SDS011;15662;49.128;8.520;2023-05-07T06:15:47;1.90;;;1.80;;
28427;SDS011;15662;49.128;8.520;2023-05-07T06:18:15;1.95;;;1.85;;
28427;SDS011;15662;49.128;8.520;2023-05-07T06:20:43;1.80;;;1.70;;
28427;SDS011;15662;49.128;8.520;2023-05-07T06:23:19;1.55;;;1.45;;
28427;SDS011;15662;49.128;8.520;2023-05-07T06:25:50;1.70;;;1.60;;
28427;SDS011;15662;49.128;8.520;2023-05-07T06:28:22;1.77;;;1.67;;
28427;SDS011;15662;49.128;8.520;2023-05-07T06:30:50;1.85;;;1.75;;
28427;SDS011;15662;49.128;8.520;2023-05-07T06:33:18;3.10;;;1.70;;
28427;SDS011;15662;49.128;8.520;2023-05-07T06:35:46;1.70;;;1.55;;
28427;SDS011;15662;49.128;8.520;2023-05-07T06:38:14;2.53;;;1.60;;
28427;SDS011;15662;49.128;8.520;2023-05-07T06:40:43;4.15;;;1.67;;
28427;SDS011;15662;49.128;8.520;2023-05-07T06:43:16;2.78;;;1.75;;
28427;SDS011;15662;49.128;8.520;2023-05-07T06:45:53;3.00;;;2.05;;
28427;SDS011;15662;49.128;8.520;2023-05-07T06:48:22;3.90;;;2.50;;
28427;SDS011;15662;49.128;8.520;2023-05-07T06:50:57;2.70;;;1.70;;
28427;SDS011;15662;49.128;8.520;2023-05-07T06:53:26;1.75;;;1.65;;
28427;SDS011;15662;49.128;8.520;2023-05-07T06:55:56;1.90;;;1.80;;
28427;SDS011;15662;49.128;8.520;2023-05-07T06:58:24;1.70;;;1.60;;
28427;SDS011;15662;49.128;8.520;2023-05-07T07:00:53;1.60;;;1.50;;
28427;SDS011;15662;49.128;8.520;2023-05-07T07:03:23;2.40;;;1.60;;
28427;SDS011;15662;49.128;8.520;2023-05-07T07:05:52;1.60;;;1.50;;
28427;SDS011;15662;49.128;8.520;2023-05-07T07:08:21;1.75;;;1.65;;
28427;SDS011;15662;49.128;8.520;2023-05-07T07:10:51;2.80;;;1.35;;
28427;SDS011;15662;49.128;8.520;2023-05-07T07:13:21;2.20;;;1.98;;
28427;SDS011;15662;49.128;8.520;2023-05-07T07:15:49;1.50;;;1.40;;
28427;SDS011;15662;49.128;8.520;2023-05-07T07:18:18;1.42;;;1.33;;
28427;SDS011;15662;49.128;8.520;2023-05-07T07:20:48;1.50;;;1.40;;
28427;SDS011;15662;49.128;8.520;2023-05-07T07:23:17;1.20;;;1.20;;
28427;SDS011;15662;49.128;8.520;2023-05-07T07:25:47;1.90;;;1.50;;
28427;SDS011;15662;49.128;8.520;2023-05-07T07:28:15;2.13;;;1.50;;
28427;SDS011;15662;49.128;8.520;2023-05-07T07:30:44;1.30;;;1.20;;
28427;SDS011;15662;49.128;8.520;2023-05-07T07:33:12;1.20;;;1.20;;
28427;SDS011;15662;49.128;8.520;2023-05-07T07:35:40;1.40;;;1.30;;
28427;SDS011;15662;49.128;8.520;2023-05-07T07:38:07;1.50;;;1.40;;
28427;SDS011;15662;49.128;8.520;2023-05-07T07:40:35;1.33;;;1.20;;
28427;SDS011;15662;49.128;8.520;2023-05-07T07:43:05;2.38;;;1.50;;
28427;SDS011;15662;49.128;8.520;2023-05-07T07:45:33;1.50;;;1.40;;
28427;SDS011;15662;49.128;8.520;2023-05-07T07:48:02;1.50;;;1.40;;
28427;SDS011;15662;49.128;8.520;2023-05-07T07:50:33;1.63;;;1.25;;
28427;SDS011;15662;49.128;8.520;2023-05-07T07:53:13;1.33;;;1.23;;
28427;SDS011;15662;49.128;8.520;2023-05-07T07:55:41;2.03;;;1.55;;
28427;SDS011;15662;49.128;8.520;2023-05-07T08:00:40;2.85;;;1.20;;
28427;SDS011;15662;49.128;8.520;2023-05-07T08:03:09;1.10;;;1.00;;
28427;SDS011;15662;49.128;8.520;2023-05-07T08:05:43;1.27;;;1.25;;
28427;SDS011;15662;49.128;8.520;2023-05-07T08:08:11;2.65;;;1.60;;
28427;SDS011;15662;49.128;8.520;2023-05-07T08:10:41;4.15;;;1.70;;
28427;SDS011;15662;49.128;8.520;2023-05-07T08:13:18;1.60;;;1.38;;
28427;SDS011;15662;49.128;8.520;2023-05-07T08:15:46;1.38;;;1.27;;
28427;SDS011;15662;49.128;8.520;2023-05-07T08:18:14;1.55;;;1.30;;
28427;SDS011;15662;49.128;8.520;2023-05-07T08:20:43;1.20;;;1.20;;
28427;SDS011;15662;49.128;8.520;2023-05-07T08:23:15;1.55;;;1.17;;
28427;SDS011;15662;49.128;8.520;2023-05-07T08:25:46;1.40;;;1.30;;
28427;SDS011;15662;49.128;8.520;2023-05-07T08:28:15;1.95;;;1.40;;
28427;SDS011;15662;49.128;8.520;2023-05-07T08:30:42;1.83;;;1.73;;
28427;SDS011;15662;49.128;8.520;2023-05-07T08:33:10;1.85;;;1.73;;
28427;SDS011;15662;49.128;8.520;2023-05-07T08:35:38;1.98;;;1.58;;
28427;SDS011;15662;49.128;8.520;2023-05-07T08:38:08;2.38;;;1.42;;
28427;SDS011;15662;49.128;8.520;2023-05-07T08:40:38;2.30;;;1.50;;
28427;SDS011;15662;49.128;8.520;2023-05-07T08:43:17;1.40;;;1.38;;
28427;SDS011;15662;49.128;8.520;2023-05-07T08:45:46;1.70;;;1.60;;
28427;SDS011;15662;49.128;8.520;2023-05-07T08:48:25;2.38;;;2.15;;
28427;SDS011;15662;49.128;8.520;2023-05-07T08:51:03;1.85;;;1.75;;
28427;SDS011;15662;49.128;8.520;2023-05-07T08:53:33;2.15;;;1.88;;
28427;SDS011;15662;49.128;8.520;2023-05-07T08:56:02;2.20;;;1.67;;
28427;SDS011;15662;49.128;8.520;2023-05-07T08:58:34;2.08;;;1.90;;
28427;SDS011;15662;49.128;8.520;2023-05-07T09:01:12;3.92;;;1.60;;
28427;SDS011;15662;49.128;8.520;2023-05-07T09:03:46;1.70;;;1.60;;
28427;SDS011;15662;49.128;8.520;2023-05-07T09:06:15;3.30;;;2.65;;
28427;SDS011;15662;49.128;8.520;2023-05-07T09:08:54;7.50;;;3.47;;
28427;SDS011;15662;49.128;8.520;2023-05-07T09:11:26;1.95;;;1.85;;
28427;SDS011;15662;49.128;8.520;2023-05-07T09:13:57;1.73;;;1.60;;
28427;SDS011;15662;49.128;8.520;2023-05-07T09:16:30;1.70;;;1.60;;
28427;SDS011;15662;49.128;8.520;2023-05-07T09:18:59;1.65;;;1.55;;
28427;SDS011;15662;49.128;8.520;2023-05-07T09:21:29;1.48;;;1.38;;
28427;SDS011;15662;49.128;8.520;2023-05-07T09:24:03;1.60;;;1.50;;
28427;SDS011;15662;49.128;8.520;2023-05-07T09:26:37;1.52;;;1.48;;
28427;SDS011;15662;49.128;8.520;2023-05-07T09:29:07;3.00;;;1.60;;
28427;SDS011;15662;49.128;8.520;2023-05-07T09:34:11;1.55;;;1.52;;
28427;SDS011;15662;49.128;8.520;2023-05-07T09:36:41;1.47;;;1.37;;
28427;SDS011;15662;49.128;8.520;2023-05-07T09:39:10;2.03;;;1.60;;
28427;SDS011;15662;49.128;8.520;2023-05-07T09:41:44;1.55;;;1.45;;
28427;SDS011;15662;49.128;8.520;2023-05-07T09:44:20;1.92;;;1.50;;
28427;SDS011;15662;49.128;8.520;2023-05-07T09:46:56;2.28;;;1.67;;
28427;SDS011;15662;49.128;8.520;2023-05-07T09:49:37;2.42;;;1.60;;
28427;SDS011;15662;49.128;8.520;2023-05-07T09:52:11;1.70;;;1.60;;
28427;SDS011;15662;49.128;8.520;2023-05-07T09:54:51;3.35;;;1.42;;
28427;SDS011;15662;49.128;8.520;2023-05-07T09:57:23;1.55;;;1.40;;
28427;SDS011;15662;49.128;8.520;2023-05-07T09:59:58;1.50;;;1.40;;
28427;SDS011;15662;49.128;8.520;2023-05-07T10:02:30;2.10;;;1.63;;
28427;SDS011;15662;49.128;8.520;2023-05-07T10:05:03;3.08;;;1.60;;
28427;SDS011;15662;49.128;8.520;2023-05-07T10:07:33;1.83;;;1.73;;
28427;SDS011;15662;49.128;8.520;2023-05-07T10:10:07;1.60;;;1.50;;
28427;SDS011;15662;49.128;8.520;2023-05-07T10:12:40;2.17;;;1.65;;
28427;SDS011;15662;49.128;8.520;2023-05-07T10:15:17;1.60;;;1.50;;
28427;SDS011;15662;49.128;8.520;2023-05-07T10:17:50;1.55;;;1.50;;
28427;SDS011;15662;49.128;8.520;2023-05-07T10:20:20;3.20;;;1.92;;
28427;SDS011;15662;49.128;8.520;2023-05-07T10:22:54;2.25;;;1.67;;
28427;SDS011;15662;49.128;8.520;2023-05-07T10:25:30;1.85;;;1.50;;
28427;SDS011;15662;49.128;8.520;2023-05-07T10:28:06;1.42;;;1.40;;
28427;SDS011;15662;49.128;8.520;2023-05-07T10:33:58;2.08;;;1.80;;
28427;SDS011;15662;49.128;8.520;2023-05-07T10:36:28;2.30;;;1.63;;
28427;SDS011;15662;49.128;8.520;2023-05-07T10:38:57;1.70;;;1.40;;
28427;SDS011;15662;49.128;8.520;2023-05-07T10:41:26;3.83;;;1.52;;
28427;SDS011;15662;49.128;8.520;2023-05-07T10:43:54;1.60;;;1.40;;
28427;SDS011;15662;49.128;8.520;2023-05-07T10:46:27;1.50;;;1.40;;
28427;SDS011;15662;49.128;8.520;2023-05-07T10:51:42;1.40;;;1.40;;
28427;SDS011;15662;49.128;8.520;2023-05-07T10:54:21;2.95;;;2.60;;
28427;SDS011;15662;49.128;8.520;2023-05-07T11:03:07;1.40;;;1.30;;
28427;SDS011;15662;49.128;8.520;2023-05-07T11:06:10;1.50;;;1.30;;
28427;SDS011;15662;49.128;8.520;2023-05-07T11:08:55;1.40;;;1.30;;
28427;SDS011;15662;49.128;8.520;2023-05-07T11:11:52;1.38;;;1.27;;
28427;SDS011;15662;49.128;8.520;2023-05-07T11:14:45;1.45;;;1.35;;
28427;SDS011;15662;49.128;8.520;2023-05-07T11:17:20;1.65;;;1.55;;
28427;SDS011;15662;49.128;8.520;2023-05-07T11:19:55;2.95;;;1.40;;
28427;SDS011;15662;49.128;8.520;2023-05-07T11:22:53;1.27;;;1.23;;
28427;SDS011;15662;49.128;8.520;2023-05-07T11:25:33;2.10;;;1.70;;
28427;SDS011;15662;49.128;8.520;2023-05-07T11:28:11;1.58;;;1.48;;
28427;SDS011;15662;49.128;8.520;2023-05-07T11:30:45;1.35;;;1.23;;
28427;SDS011;15662;49.128;8.520;2023-05-07T11:33:17;1.38;;;1.10;;
28427;SDS011;15662;49.128;8.520;2023-05-07T11:35:46;1.67;;;1.43;;
28427;SDS011;15662;49.128;8.520;2023-05-07T11:38:17;1.17;;;1.15;;
28427;SDS011;15662;49.128;8.520;2023-05-07T11:40:52;1.30;;;1.20;;
28427;SDS011;15662;49.128;8.520;2023-05-07T11:43:22;3.88;;;1.45;;
28427;SDS011;15662;49.128;8.520;2023-05-07T11:45:50;1.20;;;1.20;;
28427;SDS011;15662;49.128;8.520;2023-05-07T11:48:18;1.23;;;1.23;;
28427;SDS011;15662;49.128;8.520;2023-05-07T11:51:00;1.60;;;1.50;;
28427;SDS011;15662;49.128;8.520;2023-05-07T11:53:36;1.90;;;1.60;;
28427;SDS011;15662;49.128;8.520;2023-05-07T11:56:10;2.67;;;1.75;;
28427;SDS011;15662;49.128;8.520;2023-05-07T11:58:43;1.60;;;1.50;;
28427;SDS011;15662;49.128;8.520;2023-05-07T12:01:13;2.00;;;1.80;;
28427;SDS011;15662;49.128;8.520;2023-05-07T12:03:43;1.60;;;1.50;;
28427;SDS011;15662;49.128;8.520;2023-05-07T12:06:15;1.90;;;1.80;;
28427;SDS011;15662;49.128;8.520;2023-05-07T12:08:44;1.50;;;1.40;;
28427;SDS011;15662;49.128;8.520;2023-05-07T12:11:24;1.30;;;1.20;;
28427;SDS011;15662;49.128;8.520;2023-05-07T12:13:55;1.58;;;1.48;;
28427;SDS011;15662;49.128;8.520;2023-05-07T12:16:31;2.92;;;1.38;;
28427;SDS011;15662;49.128;8.520;2023-05-07T12:19:00;1.70;;;1.27;;
28427;SDS011;15662;49.128;8.520;2023-05-07T12:21:27;1.42;;;1.30;;
28427;SDS011;15662;49.128;8.520;2023-05-07T12:23:56;1.10;;;1.10;;
28427;SDS011;15662;49.128;8.520;2023-05-07T12:26:31;1.30;;;1.20;;
28427;SDS011;15662;49.128;8.520;2023-05-07T12:28:59;1.38;;;1.27;;
28427;SDS011;15662;49.128;8.520;2023-05-07T12:31:27;2.25;;;1.40;;
28427;SDS011;15662;49.128;8.520;2023-05-07T12:33:55;1.05;;;0.98;;
28427;SDS011;15662;49.128;8.520;2023-05-07T12:36:25;1.38;;;1.30;;
28427;SDS011;15662;49.128;8.520;2023-05-07T12:38:54;2.40;;;1.10;;
28427;SDS011;15662;49.128;8.520;2023-05-07T12:41:22;2.08;;;1.20;;
28427;SDS011;15662;49.128;8.520;2023-05-07T12:43:56;1.30;;;1.30;;
28427;SDS011;15662;49.128;8.520;2023-05-07T12:46:24;1.00;;;1.00;;
28427;SDS011;15662;49.128;8.520;2023-05-07T12:48:52;1.30;;;1.20;;
28427;SDS011;15662;49.128;8.520;2023-05-07T12:51:21;1.00;;;1.00;;
28427;SDS011;15662;49.128;8.520;2023-05-07T12:53:49;1.70;;;1.60;;
28427;SDS011;15662;49.128;8.520;2023-05-07T12:56:20;1.48;;;1.38;;
28427;SDS011;15662;49.128;8.520;2023-05-07T12:58:49;1.90;;;1.20;;
28427;SDS011;15662;49.128;8.520;2023-05-07T13:01:19;1.40;;;1.30;;
28427;SDS011;15662;49.128;8.520;2023-05-07T13:03:48;2.00;;;1.15;;
28427;SDS011;15662;49.128;8.520;2023-05-07T13:06:20;1.38;;;1.27;;
28427;SDS011;15662;49.128;8.520;2023-05-07T13:08:47;1.10;;;1.10;;
28427;SDS011;15662;49.128;8.520;2023-05-07T13:11:15;3.55;;;1.13;;
28427;SDS011;15662;49.128;8.520;2023-05-07T13:13:43;1.30;;;1.20;;
28427;SDS011;15662;49.128;8.520;2023-05-07T13:16:11;1.30;;;1.20;;
28427;SDS011;15662;49.128;8.520;2023-05-07T13:18:42;1.88;;;1.10;;
28427;SDS011;15662;49.128;8.520;2023-05-07T13:21:14;1.70;;;1.25;;
28427;SDS011;15662;49.128;8.520;2023-05-07T13:23:43;1.40;;;1.30;;
28427;SDS011;15662;49.128;8.520;2023-05-07T13:26:11;1.98;;;1.10;;
28427;SDS011;15662;49.128;8.520;2023-05-07T13:28:53;3.33;;;1.27;;
28427;SDS011;15662;49.128;8.520;2023-05-07T13:31:24;1.25;;;1.17;;
28427;SDS011;15662;49.128;8.520;2023-05-07T13:33:58;1.13;;;1.13;;
28427;SDS011;15662;49.128;8.520;2023-05-07T13:36:32;2.00;;;1.40;;
28427;SDS011;15662;49.128;8.520;2023-05-07T13:39:05;5.47;;;1.30;;
28427;SDS011;15662;49.128;8.520;2023-05-07T13:41:33;1.60;;;1.50;;
28427;SDS011;15662;49.128;8.520;2023-05-07T13:44:01;3.30;;;1.80;;
28427;SDS011;15662;49.128;8.520;2023-05-07T13:46:29;1.40;;;1.30;;
28427;SDS011;15662;49.128;8.520;2023-05-07T13:48:57;1.60;;;1.50;;
28427;SDS011;15662;49.128;8.520;2023-05-07T13:51:25;1.42;;;0.82;;
28427;SDS011;15662;49.128;8.520;2023-05-07T13:53:53;0.95;;;0.70;;
28427;SDS011;15662;49.128;8.520;2023-05-07T13:56:22;3.97;;;0.60;;
28427;SDS011;15662;49.128;8.520;2023-05-07T13:58:50;2.70;;;0.50;;
28427;SDS011;15662;49.128;8.520;2023-05-07T14:01:26;0.75;;;0.50;;
28427;SDS011;15662;49.128;8.520;2023-05-07T14:03:55;1.60;;;0.98;;
28427;SDS011;15662;49.128;8.520;2023-05-07T14:06:26;0.50;;;0.50;;
28427;SDS011;15662;49.128;8.520;2023-05-07T14:08:55;1.10;;;0.50;;
28427;SDS011;15662;49.128;8.520;2023-05-07T14:11:25;4.55;;;0.82;;
28427;SDS011;15662;49.128;8.520;2023-05-07T14:13:52;1.67;;;0.90;;
28427;SDS011;15662;49.128;8.520;2023-05-07T14:16:20;2.25;;;0.73;;
28427;SDS011;15662;49.128;8.520;2023-05-07T14:18:50;1.58;;;0.60;;
28427;SDS011;15662;49.128;8.520;2023-05-07T14:21:18;1.52;;;0.80;;
28427;SDS011;15662;49.128;8.520;2023-05-07T14:23:49;1.45;;;0.80;;
28427;SDS011;15662;49.128;8.520;2023-05-07T14:26:17;2.03;;;0.77;;
28427;SDS011;15662;49.128;8.520;2023-05-07T14:28:46;2.05;;;0.60;;
28427;SDS011;15662;49.128;8.520;2023-05-07T14:31:15;0.50;;;0.50;;
28427;SDS011;15662;49.128;8.520;2023-05-07T14:33:43;2.58;;;0.90;;
28427;SDS011;15662;49.128;8.520;2023-05-07T14:36:13;2.40;;;1.38;;
28427;SDS011;15662;49.128;8.520;2023-05-07T14:38:42;5.15;;;1.13;;
28427;SDS011;15662;49.128;8.520;2023-05-07T14:41:10;4.90;;;1.50;;
28427;SDS011;15662;49.128;8.520;2023-05-07T14:43:38;2.88;;;1.40;;
28427;SDS011;15662;49.128;8.520;2023-05-07T14:46:06;2.65;;;1.20;;
28427;SDS011;15662;49.128;8.520;2023-05-07T14:48:35;1.98;;;1.30;;
28427;SDS011;15662;49.128;8.520;2023-05-07T14:51:03;4.10;;;1.30;;
28427;SDS011;15662;49.128;8.520;2023-05-07T14:53:32;2.47;;;1.45;;
28427;SDS011;15662;49.128;8.520;2023-05-07T14:55:59;2.58;;;1.20;;
28427;SDS011;15662;49.128;8.520;2023-05-07T14:58:28;4.15;;;1.70;;
28427;SDS011;15662;49.128;8.520;2023-05-07T15:00:57;25.50;;;2.65;;
28427;SDS011;15662;49.128;8.520;2023-05-07T15:03:28;57.75;;;4.18;;
28427;SDS011;15662;49.128;8.520;2023-05-07T15:05:57;25.75;;;2.60;;
28427;SDS011;15662;49.128;8.520;2023-05-07T15:08:26;3.97;;;1.70;;
28427;SDS011;15662;49.128;8.520;2023-05-07T15:10:54;3.03;;;1.50;;
28427;SDS011;15662;49.128;8.520;2023-05-07T15:13:23;21.17;;;2.20;;
28427;SDS011;15662;49.128;8.520;2023-05-07T15:15:51;14.05;;;2.40;;
28427;SDS011;15662;49.128;8.520;2023-05-07T15:18:19;4.20;;;1.60;;
28427;SDS011;15662;49.128;8.520;2023-05-07T15:20:48;9.07;;;1.75;;
28427;SDS011;15662;49.128;8.520;2023-05-07T15:23:16;4.97;;;1.40;;
28427;SDS011;15662;49.128;8.520;2023-05-07T15:28:18;1.05;;;0.65;;
28427;SDS011;15662;49.128;8.520;2023-05-07T15:30:46;0.63;;;0.60;;
28427;SDS011;15662;49.128;8.520;2023-05-07T15:33:14;0.40;;;0.40;;
28427;SDS011;15662;49.128;8.520;2023-05-07T15:35:45;0.93;;;0.38;;